createdAt,value
2022-12-28T00:01:59.003Z,3.65
2022-12-28T00:06:01.123Z,3.92
2022-12-28T00:10:03.349Z,3.42
2022-12-28T00:14:05.343Z,3.70
2022-12-28T00:18:07.103Z,3.50
2022-12-28T00:22:08.750Z,3.35
2022-12-28T00:26:12.670Z,4.43
2022-12-28T00:30:14.358Z,4.20
2022-12-28T00:34:16.181Z,4.38
2022-12-28T00:38:17.734Z,4.72
2022-12-28T00:42:19.359Z,4.50
2022-12-28T00:46:20.962Z,4.35
2022-12-28T00:50:22.570Z,4.28
2022-12-28T00:54:24.118Z,4.00
2022-12-28T00:58:25.749Z,4.07
2022-12-28T01:02:28.544Z,4.22
2022-12-28T01:06:31.230Z,3.97
2022-12-28T01:10:32.812Z,3.73
2022-12-28T01:14:34.449Z,3.45
2022-12-28T01:18:36.232Z,3.95
2022-12-28T01:22:38.103Z,3.63
2022-12-28T01:26:42.103Z,3.10
2022-12-28T01:30:45.236Z,2.42
2022-12-28T01:34:47.378Z,3.10
2022-12-28T01:38:55.925Z,2.10
2022-12-28T01:42:58.873Z,2.50
2022-12-28T01:47:04.611Z,2.55
2022-12-28T01:51:08.189Z,2.50
2022-12-28T01:55:25.616Z,2.20
2022-12-28T01:59:34.626Z,2.05
2022-12-28T02:03:36.819Z,2.60
2022-12-28T02:07:48.492Z,2.67
2022-12-28T02:11:50.770Z,2.22
2022-12-28T02:15:52.434Z,2.67
2022-12-28T02:19:54.153Z,2.13
2022-12-28T02:23:58.531Z,2.05
2022-12-28T02:28:07.026Z,1.70
2022-12-28T02:32:36.039Z,1.77
2022-12-28T02:36:46.192Z,1.63
2022-12-28T02:40:56.525Z,2.10
2022-12-28T02:45:17.060Z,2.50
2022-12-28T02:49:41.433Z,2.78
2022-12-28T02:54:39.592Z,4.32
2022-12-28T02:58:49.102Z,3.85
2022-12-28T03:03:00.174Z,3.40
2022-12-28T03:07:49.598Z,5.15
2022-12-28T03:12:09.664Z,4.20
2022-12-28T03:16:28.697Z,4.80
2022-12-28T03:20:50.566Z,4.25
2022-12-28T03:25:11.998Z,3.63
2022-12-28T03:29:36.340Z,4.15
2022-12-28T03:33:48.395Z,3.92
2022-12-28T03:42:35.410Z,3.80
2022-12-28T03:46:46.502Z,3.37
2022-12-28T03:50:50.150Z,3.10
2022-12-28T03:54:52.814Z,3.20
2022-12-28T03:58:55.913Z,1.88
2022-12-28T04:03:00.893Z,2.50
2022-12-28T04:07:03.576Z,2.45
2022-12-28T04:11:05.503Z,2.40
2022-12-28T04:15:08.427Z,2.15
2022-12-28T04:19:10.599Z,2.33
2022-12-28T04:23:12.207Z,2.00
2022-12-28T04:27:13.801Z,2.50
2022-12-28T04:31:15.589Z,1.70
2022-12-28T04:35:24.812Z,2.28
2022-12-28T04:39:27.798Z,1.80
2022-12-28T04:43:49.455Z,1.63
2022-12-28T04:47:51.008Z,1.95
2022-12-28T04:51:52.922Z,1.52
2022-12-28T04:55:55.185Z,1.60
2022-12-28T04:59:56.718Z,1.45
2022-12-28T05:03:59.545Z,1.60
2022-12-28T05:08:02.273Z,1.60
2022-12-28T05:12:04.142Z,1.80
2022-12-28T05:16:09.643Z,1.88
2022-12-28T05:20:11.779Z,1.75
2022-12-28T05:24:13.409Z,1.80
2022-12-28T05:28:14.974Z,2.05
2022-12-28T05:32:16.614Z,1.80
2022-12-28T05:36:20.684Z,2.33
2022-12-28T05:40:22.248Z,1.83
2022-12-28T05:44:25.374Z,1.77
2022-12-28T05:48:27.103Z,2.17
2022-12-28T05:52:30.240Z,1.92
2022-12-28T05:56:32.683Z,1.60
2022-12-28T06:00:34.328Z,1.80
2022-12-28T06:04:35.947Z,2.10
2022-12-28T06:08:38.750Z,1.60
2022-12-28T06:16:42.796Z,1.60
2022-12-28T06:20:44.502Z,1.70
2022-12-28T06:24:48.081Z,1.70
2022-12-28T06:28:52.775Z,1.90
2022-12-28T06:32:56.460Z,1.50
2022-12-28T06:36:58.327Z,1.75
2022-12-28T06:41:14.218Z,1.85
2022-12-28T06:45:17.294Z,1.85
2022-12-28T06:49:22.766Z,1.70
2022-12-28T06:53:29.142Z,1.77
2022-12-28T06:57:31.224Z,1.98
2022-12-28T07:01:39.992Z,1.60
2022-12-28T07:05:41.752Z,1.60
2022-12-28T07:09:43.533Z,2.20
2022-12-28T07:13:45.417Z,2.05
2022-12-28T07:17:47.097Z,1.50
2022-12-28T07:21:49.791Z,1.88
2022-12-28T07:25:54.167Z,1.60
2022-12-28T07:29:55.792Z,2.05
2022-12-28T07:33:59.395Z,1.60
2022-12-28T07:38:01.215Z,1.45
2022-12-28T07:42:06.767Z,1.67
2022-12-28T07:46:11.912Z,1.80
2022-12-28T07:50:14.492Z,2.13
2022-12-28T07:54:16.614Z,1.92
2022-12-28T07:58:18.132Z,1.45
2022-12-28T08:02:20.240Z,1.50
2022-12-28T08:06:25.968Z,1.80
2022-12-28T08:10:27.582Z,1.40
2022-12-28T08:14:30.781Z,1.38
2022-12-28T08:18:34.240Z,1.20
2022-12-28T08:22:35.858Z,1.23
2022-12-28T08:26:39.452Z,1.38
2022-12-28T08:30:55.309Z,1.75
2022-12-28T08:34:57.360Z,1.45
2022-12-28T08:39:02.179Z,1.23
2022-12-28T08:43:03.889Z,1.30
2022-12-28T08:47:06.188Z,1.58
2022-12-28T08:51:35.915Z,1.30
2022-12-28T08:55:37.452Z,1.27
2022-12-28T08:59:39.140Z,1.20
2022-12-28T09:03:43.551Z,1.50
2022-12-28T09:07:45.834Z,1.40
2022-12-28T09:11:48.171Z,1.38
2022-12-28T09:16:00.317Z,1.50
2022-12-28T09:20:02.130Z,1.13
2022-12-28T09:24:04.081Z,1.40
2022-12-28T09:28:05.654Z,0.95
2022-12-28T09:32:07.183Z,1.25
2022-12-28T09:36:09.173Z,1.48
2022-12-28T09:40:13.135Z,1.10
2022-12-28T09:44:17.729Z,1.27
2022-12-28T09:48:23.169Z,1.13
2022-12-28T09:52:31.148Z,1.20
2022-12-28T09:56:57.451Z,1.30
2022-12-28T10:01:01.882Z,2.13
2022-12-28T10:05:04.152Z,1.38
2022-12-28T10:09:13.608Z,0.88
2022-12-28T10:13:54.943Z,0.98
2022-12-28T10:17:57.319Z,1.13
2022-12-28T10:22:00.576Z,1.40
2022-12-28T10:26:04.864Z,1.30
2022-12-28T10:30:16.362Z,1.30
2022-12-28T10:34:21.410Z,1.15
2022-12-28T10:38:27.619Z,1.08
2022-12-28T10:42:40.098Z,1.50
2022-12-28T10:46:52.645Z,1.00
2022-12-28T10:50:58.962Z,1.20
2022-12-28T10:55:07.695Z,1.17
2022-12-28T10:59:10.275Z,1.38
2022-12-28T11:03:20.177Z,0.93
2022-12-28T11:07:35.630Z,1.50
2022-12-28T11:11:37.444Z,1.15
2022-12-28T11:15:40.836Z,1.40
2022-12-28T11:19:42.885Z,1.33
2022-12-28T11:23:44.849Z,1.23
2022-12-28T11:27:47.872Z,1.57
2022-12-28T11:31:56.142Z,1.35
2022-12-28T11:35:59.915Z,1.63
2022-12-28T11:40:02.466Z,0.80
2022-12-28T11:44:05.707Z,1.15
2022-12-28T11:48:41.744Z,1.30
2022-12-28T11:52:47.927Z,1.33
2022-12-28T11:56:52.211Z,1.50
2022-12-28T12:00:55.106Z,1.17
2022-12-28T12:08:58.744Z,1.33
2022-12-28T12:13:02.615Z,1.20
2022-12-28T12:17:14.101Z,1.13
2022-12-28T12:21:42.047Z,1.17
2022-12-28T12:25:48.647Z,1.08
2022-12-28T12:30:02.080Z,1.27
2022-12-28T12:34:26.406Z,1.45
2022-12-28T12:38:44.120Z,1.13
2022-12-28T12:43:07.358Z,1.20
2022-12-28T12:47:27.826Z,1.30
2022-12-28T12:51:50.483Z,1.40
2022-12-28T12:55:51.947Z,1.30
2022-12-28T13:00:04.088Z,1.33
2022-12-28T13:04:21.762Z,1.20
2022-12-28T13:08:32.875Z,1.88
2022-12-28T13:12:36.209Z,1.17
2022-12-28T13:16:38.487Z,1.20
2022-12-28T13:20:40.064Z,1.50
2022-12-28T13:24:46.076Z,1.45
2022-12-28T13:29:00.106Z,1.25
2022-12-28T13:33:04.618Z,1.40
2022-12-28T13:37:17.386Z,1.00
2022-12-28T13:41:25.897Z,1.35
2022-12-28T13:45:27.817Z,1.05
2022-12-28T13:49:35.502Z,1.43
2022-12-28T13:53:38.086Z,1.50
2022-12-28T13:57:48.229Z,1.08
2022-12-28T14:01:51.387Z,1.23
2022-12-28T14:05:56.087Z,1.20
2022-12-28T14:09:58.614Z,1.25
2022-12-28T14:14:00.436Z,1.25
2022-12-28T14:18:02.780Z,1.42
2022-12-28T14:22:28.634Z,1.40
2022-12-28T14:26:30.528Z,1.00
2022-12-28T14:30:42.107Z,1.52
2022-12-28T14:34:43.845Z,1.40
2022-12-28T14:38:48.572Z,1.13
2022-12-28T14:42:52.347Z,1.13
2022-12-28T14:46:54.908Z,1.25
2022-12-28T14:51:04.546Z,0.98
2022-12-28T14:55:25.112Z,1.05
2022-12-28T14:59:36.660Z,1.38
2022-12-28T15:03:58.130Z,1.10
2022-12-28T15:07:59.934Z,0.88
2022-12-28T15:12:09.855Z,1.85
2022-12-28T15:16:14.099Z,2.90
2022-12-28T15:20:17.611Z,2.40
2022-12-28T15:24:22.505Z,2.08
2022-12-28T15:28:26.421Z,1.17
2022-12-28T15:32:28.956Z,1.30
2022-12-28T15:36:30.622Z,1.50
2022-12-28T15:40:32.352Z,1.45
2022-12-28T15:44:33.968Z,1.40
2022-12-28T15:48:35.646Z,1.98
2022-12-28T15:52:43.361Z,1.23
2022-12-28T15:56:52.503Z,1.05
2022-12-28T16:00:54.586Z,1.08
2022-12-28T16:05:08.992Z,1.27
2022-12-28T16:09:12.037Z,0.90
2022-12-28T16:13:13.591Z,0.68
2022-12-28T16:17:15.716Z,0.82
2022-12-28T16:21:18.115Z,0.87
2022-12-28T16:25:19.653Z,1.10
2022-12-28T16:29:21.413Z,1.10
2022-12-28T16:33:23.781Z,1.20
2022-12-28T16:37:25.423Z,1.00
2022-12-28T16:41:33.028Z,1.08
2022-12-28T16:45:43.148Z,1.30
2022-12-28T16:49:44.736Z,1.00
2022-12-28T16:53:46.521Z,1.30
2022-12-28T16:57:48.066Z,1.23
2022-12-28T17:01:50.017Z,0.95
2022-12-28T17:05:52.717Z,1.70
2022-12-28T17:09:54.435Z,1.30
2022-12-28T17:14:09.587Z,1.02
2022-12-28T17:18:12.299Z,1.10
2022-12-28T17:22:14.068Z,1.23
2022-12-28T17:26:15.631Z,2.00
2022-12-28T17:30:17.714Z,1.58
2022-12-28T17:34:19.437Z,1.03
2022-12-28T17:38:21.237Z,1.85
2022-12-28T17:42:23.044Z,1.30
2022-12-28T17:46:27.150Z,1.20
2022-12-28T17:50:28.869Z,1.20
2022-12-28T17:54:30.392Z,1.30
2022-12-28T17:58:35.542Z,1.30
2022-12-28T18:02:37.495Z,1.63
2022-12-28T18:06:39.659Z,1.70
2022-12-28T18:10:42.044Z,1.38
2022-12-28T18:14:44.009Z,1.27
2022-12-28T18:19:02.359Z,1.67
2022-12-28T18:23:06.547Z,1.30
2022-12-28T18:27:09.262Z,1.25
2022-12-28T18:31:11.120Z,1.30
2022-12-28T18:35:12.706Z,1.20
2022-12-28T18:39:14.680Z,1.33
2022-12-28T18:43:16.229Z,1.30
2022-12-28T18:47:18.178Z,1.52
2022-12-28T18:51:20.363Z,1.40
2022-12-28T18:55:22.162Z,1.45
2022-12-28T18:59:24.666Z,1.60
2022-12-28T19:03:26.906Z,1.50
2022-12-28T19:07:29.554Z,1.42
2022-12-28T19:11:31.443Z,1.35
2022-12-28T19:15:33.136Z,1.27
2022-12-28T19:19:34.722Z,2.08
2022-12-28T19:23:36.307Z,1.63
2022-12-28T19:27:37.906Z,1.50
2022-12-28T19:31:39.788Z,1.58
2022-12-28T19:35:41.466Z,1.33
2022-12-28T19:39:44.006Z,1.42
2022-12-28T19:43:46.054Z,1.42
2022-12-28T19:47:47.580Z,1.33
2022-12-28T19:51:52.155Z,1.02
2022-12-28T19:56:06.717Z,0.93
2022-12-28T20:00:09.244Z,1.27
2022-12-28T20:04:14.469Z,1.40
2022-12-28T20:08:16.549Z,1.05
2022-12-28T20:12:19.443Z,1.13
2022-12-28T20:20:40.717Z,1.40
2022-12-28T20:24:51.258Z,1.17
2022-12-28T20:28:53.015Z,1.27
2022-12-28T20:32:59.664Z,1.00
2022-12-28T20:37:02.483Z,1.17
2022-12-28T20:45:10.399Z,1.48
2022-12-28T20:49:12.714Z,1.30
2022-12-28T20:53:15.242Z,1.13
2022-12-28T20:57:16.847Z,1.27
2022-12-28T21:01:18.686Z,1.20
2022-12-28T21:05:20.783Z,1.63
2022-12-28T21:09:25.393Z,1.20
2022-12-28T21:13:27.480Z,1.13
2022-12-28T21:17:29.036Z,1.40
2022-12-28T21:21:30.708Z,1.35
2022-12-28T21:25:35.272Z,1.15
2022-12-28T21:29:36.959Z,1.48
2022-12-28T21:33:39.166Z,1.13
2022-12-28T21:37:43.994Z,1.43
2022-12-28T21:41:49.741Z,2.10
2022-12-28T21:46:08.265Z,1.35
2022-12-28T21:50:11.200Z,1.45
2022-12-28T21:58:21.471Z,1.23
2022-12-28T22:02:41.929Z,1.45
2022-12-28T22:06:43.745Z,1.40
2022-12-28T22:11:03.837Z,1.48
2022-12-28T22:15:46.051Z,1.67
2022-12-28T22:19:48.295Z,1.67
2022-12-28T22:23:49.833Z,1.20
2022-12-28T22:27:51.618Z,1.60
2022-12-28T22:31:53.313Z,1.60
2022-12-28T22:35:54.904Z,1.50
2022-12-28T22:39:56.618Z,1.70
2022-12-28T22:43:58.190Z,1.80
2022-12-28T22:48:00.007Z,2.17
2022-12-28T22:52:01.531Z,1.70
2022-12-28T22:56:06.032Z,1.65
2022-12-28T23:00:11.898Z,2.10
2022-12-28T23:04:14.949Z,1.77
2022-12-28T23:08:16.569Z,2.05
2022-12-28T23:12:18.103Z,1.40
2022-12-28T23:16:19.739Z,1.67
2022-12-28T23:20:40.137Z,1.92
2022-12-28T23:25:00.546Z,1.70
2022-12-28T23:29:02.095Z,2.15
2022-12-28T23:33:03.782Z,2.10
2022-12-28T23:37:05.409Z,1.45
2022-12-28T23:41:25.617Z,1.52
2022-12-28T23:45:27.243Z,1.52
2022-12-28T23:49:28.884Z,1.63
2022-12-28T23:53:30.457Z,1.60
2022-12-28T23:57:32.180Z,1.65
